createdAt,value
2018-03-23T00:00:35.465Z,75.76
2018-03-23T00:05:36.396Z,76.14
2018-03-23T00:10:38.360Z,77.99
2018-03-23T00:15:39.277Z,76.71
2018-03-23T00:20:40.225Z,75.26
2018-03-23T00:25:41.149Z,76.71
2018-03-23T00:30:42.054Z,75.13
2018-03-23T00:35:43.000Z,77.53
2018-03-23T00:40:44.005Z,75.56
2018-03-23T00:45:44.948Z,74.04
2018-03-23T00:50:45.893Z,76.04
2018-03-23T00:55:46.828Z,74.43
2018-03-23T01:00:47.901Z,74.72
2018-03-23T01:05:48.951Z,74.30
2018-03-23T01:10:49.944Z,74.18
2018-03-23T01:15:50.873Z,73.36
2018-03-23T01:20:51.784Z,74.64
2018-03-23T01:25:52.715Z,76.35
2018-03-23T01:30:53.650Z,84.71
2018-03-23T01:35:54.604Z,73.82
2018-03-23T01:40:55.796Z,74.57
2018-03-23T01:45:56.709Z,73.92
2018-03-23T01:50:57.654Z,73.95
2018-03-23T01:55:58.584Z,75.22
2018-03-23T02:00:59.525Z,76.99
2018-03-23T02:06:00.485Z,74.94
2018-03-23T02:11:01.433Z,74.32
2018-03-23T02:16:02.388Z,73.08
2018-03-23T02:21:03.315Z,73.19
2018-03-23T02:26:04.274Z,76.27
2018-03-23T02:31:05.229Z,75.68
2018-03-23T02:36:06.193Z,78.56
2018-03-23T02:41:07.129Z,76.50
2018-03-23T02:46:08.063Z,76.34
2018-03-23T02:51:09.047Z,76.30
2018-03-23T02:56:09.976Z,75.20
2018-03-23T03:01:10.904Z,74.54
2018-03-23T03:06:11.833Z,75.51
2018-03-23T03:11:12.795Z,74.05
2018-03-23T03:16:13.717Z,74.90
2018-03-23T03:21:14.651Z,75.48
2018-03-23T03:26:15.568Z,76.23
2018-03-23T03:31:16.484Z,77.67
2018-03-23T03:36:17.443Z,74.62
2018-03-23T03:41:18.376Z,74.61
2018-03-23T03:46:19.312Z,73.32
2018-03-23T03:51:20.241Z,73.12
2018-03-23T03:56:21.193Z,75.08
2018-03-23T04:01:22.130Z,76.48
2018-03-23T04:06:23.050Z,73.92
2018-03-23T04:11:23.968Z,74.67
2018-03-23T04:16:24.885Z,76.26
2018-03-23T04:21:25.801Z,74.45
2018-03-23T04:26:26.747Z,73.45
2018-03-23T04:31:27.704Z,77.85
2018-03-23T04:36:28.700Z,76.05
2018-03-23T04:41:29.613Z,76.05
2018-03-23T04:46:30.556Z,76.14
2018-03-23T04:51:31.512Z,73.87
2018-03-23T04:56:32.447Z,73.39
2018-03-23T05:01:33.393Z,73.98
2018-03-23T05:06:34.322Z,73.71
2018-03-23T05:11:35.256Z,70.92
2018-03-23T05:16:36.200Z,74.03
2018-03-23T05:21:37.174Z,74.62
2018-03-23T05:26:38.109Z,75.29
2018-03-23T05:31:39.061Z,73.35
2018-03-23T05:36:40.018Z,71.65
2018-03-23T05:41:40.976Z,70.91
2018-03-23T05:46:41.912Z,69.66
2018-03-23T05:51:42.863Z,73.81
2018-03-23T05:56:44.571Z,75.21
2018-03-23T06:01:45.528Z,77.68
2018-03-23T06:06:46.460Z,75.65
2018-03-23T06:11:47.405Z,71.90
2018-03-23T06:16:48.376Z,72.43
2018-03-23T06:21:49.318Z,74.45
2018-03-23T06:26:50.265Z,74.80
2018-03-23T06:31:51.218Z,75.29
2018-03-23T06:36:52.207Z,71.78
2018-03-23T06:41:53.150Z,73.10
2018-03-23T06:46:54.104Z,73.79
2018-03-23T06:51:55.032Z,73.04
2018-03-23T06:56:55.973Z,73.47
2018-03-23T07:01:56.900Z,71.92
2018-03-23T07:06:57.834Z,73.82
2018-03-23T07:11:58.772Z,69.55
2018-03-23T07:16:59.713Z,74.29
2018-03-23T07:22:00.672Z,70.96
2018-03-23T07:27:01.655Z,73.05
2018-03-23T07:32:02.595Z,76.35
2018-03-23T07:37:03.632Z,78.09
2018-03-23T07:42:04.579Z,77.04
2018-03-23T07:47:05.531Z,76.48
2018-03-23T07:52:06.481Z,76.60
2018-03-23T07:57:07.432Z,78.03
2018-03-23T08:02:08.371Z,78.94
2018-03-23T08:07:09.306Z,75.72
2018-03-23T08:12:10.238Z,75.55
2018-03-23T08:17:11.183Z,77.98
2018-03-23T08:22:12.136Z,77.68
2018-03-23T08:27:13.045Z,73.85
2018-03-23T08:32:13.966Z,74.01
2018-03-23T08:37:14.942Z,73.97
2018-03-23T08:42:15.888Z,72.89
2018-03-23T08:47:16.815Z,70.22
2018-03-23T08:52:17.763Z,72.17
2018-03-23T08:57:18.701Z,72.37
2018-03-23T09:02:19.641Z,72.85
2018-03-23T09:07:20.596Z,72.91
2018-03-23T09:12:21.560Z,71.10
2018-03-23T09:17:22.505Z,74.87
2018-03-23T09:22:23.461Z,73.11
2018-03-23T09:27:24.391Z,74.14
2018-03-23T09:32:25.295Z,72.62
2018-03-23T09:37:26.272Z,71.58
2018-03-23T09:42:27.213Z,73.47
2018-03-23T09:47:28.143Z,74.85
2018-03-23T09:52:29.115Z,74.06
2018-03-23T09:57:30.088Z,73.52
2018-03-23T10:02:31.010Z,76.33
2018-03-23T10:07:31.942Z,77.02
2018-03-23T10:12:32.899Z,79.19
2018-03-23T10:17:33.838Z,79.33
2018-03-23T10:22:34.791Z,79.13
2018-03-23T10:27:35.740Z,76.57
2018-03-23T10:32:36.685Z,73.37
2018-03-23T10:37:37.673Z,73.66
2018-03-23T10:42:38.645Z,76.17
2018-03-23T10:47:39.587Z,77.55
2018-03-23T10:52:40.546Z,77.99
2018-03-23T10:57:41.509Z,75.95
2018-03-23T11:02:48.617Z,75.80
2018-03-23T11:07:49.551Z,76.43
2018-03-23T11:12:50.470Z,74.14
2018-03-23T11:17:51.407Z,76.31
2018-03-23T11:22:52.334Z,78.81
2018-03-23T11:27:53.282Z,77.96
2018-03-23T11:32:54.214Z,78.27
2018-03-23T11:37:55.182Z,78.39
2018-03-23T11:42:56.144Z,75.77
2018-03-23T11:47:57.088Z,76.32
2018-03-23T11:52:58.261Z,73.21
2018-03-23T11:57:59.237Z,75.22
2018-03-23T12:03:06.980Z,68.86
2018-03-23T12:08:07.916Z,66.89
2018-03-23T12:13:08.853Z,66.88
2018-03-23T12:18:09.800Z,66.20
2018-03-23T12:23:10.738Z,66.48
2018-03-23T12:28:11.696Z,69.00
2018-03-23T12:33:13.518Z,65.81
2018-03-23T12:38:14.484Z,65.51
2018-03-23T12:43:15.416Z,68.22
2018-03-23T12:48:16.378Z,67.17
2018-03-23T12:53:17.329Z,66.76
2018-03-23T12:58:18.268Z,67.45
2018-03-23T13:03:19.186Z,64.37
2018-03-23T13:08:20.123Z,66.61
2018-03-23T13:13:21.098Z,66.09
2018-03-23T13:18:22.046Z,68.05
2018-03-23T13:23:23.011Z,65.30
2018-03-23T13:28:23.965Z,66.23
2018-03-23T13:33:24.927Z,65.84
2018-03-23T13:38:25.918Z,65.02
2018-03-23T13:43:26.852Z,64.77
2018-03-23T13:48:27.818Z,64.89
2018-03-23T13:53:28.836Z,63.26
2018-03-23T13:58:36.032Z,57.77
2018-03-23T14:03:36.983Z,59.22
2018-03-23T14:08:37.925Z,61.92
2018-03-23T14:13:38.883Z,64.80
2018-03-23T14:18:39.810Z,66.69
2018-03-23T14:23:40.753Z,66.54
2018-03-23T14:28:41.694Z,66.35
2018-03-23T14:33:42.652Z,65.77
2018-03-23T14:38:43.634Z,64.69
2018-03-23T14:43:44.575Z,64.93
2018-03-23T14:48:45.523Z,66.55
2018-03-23T14:53:46.507Z,67.25
2018-03-23T14:58:53.615Z,66.77
2018-03-23T15:03:54.567Z,67.00
2018-03-23T15:08:55.534Z,65.81
2018-03-23T15:14:08.849Z,66.16
2018-03-23T15:19:09.832Z,66.84
2018-03-23T15:24:10.790Z,68.41
2018-03-23T15:29:11.738Z,68.13
2018-03-23T15:34:12.708Z,66.85
2018-03-23T15:39:13.662Z,66.32
2018-03-23T15:44:14.641Z,66.16
2018-03-23T15:49:15.607Z,66.33
2018-03-23T15:54:16.573Z,66.49
2018-03-23T15:59:17.544Z,65.95
2018-03-23T16:04:18.515Z,66.57
2018-03-23T16:09:19.507Z,67.78
2018-03-23T16:14:20.506Z,68.09
2018-03-23T16:19:21.452Z,66.80
2018-03-23T16:24:22.424Z,66.90
2018-03-23T16:29:23.402Z,67.94
2018-03-23T16:34:24.369Z,67.80
2018-03-23T16:39:25.326Z,67.85
2018-03-23T16:44:26.253Z,68.70
2018-03-23T16:49:27.209Z,68.91
2018-03-23T16:54:28.229Z,68.67
2018-03-23T16:59:29.175Z,69.33
2018-03-23T17:04:30.168Z,69.37
2018-03-23T17:09:31.142Z,69.78
2018-03-23T17:14:32.085Z,70.82
2018-03-23T17:19:33.031Z,71.07
2018-03-23T17:24:34.413Z,70.04
2018-03-23T17:29:35.392Z,70.42
2018-03-23T17:34:36.363Z,70.35
2018-03-23T17:39:37.376Z,70.15
2018-03-23T17:44:38.341Z,69.62
2018-03-23T17:49:39.346Z,70.08
2018-03-23T17:54:40.327Z,69.75
2018-03-23T17:59:41.322Z,71.39
2018-03-23T18:04:42.270Z,69.33
2018-03-23T18:09:43.253Z,71.29
2018-03-23T18:14:44.285Z,71.29
2018-03-23T18:19:45.260Z,70.14
2018-03-23T18:24:46.230Z,70.58
2018-03-23T18:29:47.251Z,69.23
2018-03-23T18:34:48.266Z,69.93
2018-03-23T18:39:49.299Z,69.42
2018-03-23T18:44:50.254Z,70.33
2018-03-23T18:49:51.233Z,69.73
2018-03-23T18:54:52.242Z,70.51
2018-03-23T18:59:53.180Z,70.58
2018-03-23T19:04:54.131Z,72.04
2018-03-23T19:09:55.081Z,71.47
2018-03-23T19:14:56.055Z,71.74
2018-03-23T19:19:57.001Z,71.74
2018-03-23T19:24:57.979Z,71.96
2018-03-23T19:29:58.944Z,72.36
2018-03-23T19:34:59.925Z,71.67
2018-03-23T19:40:00.961Z,70.84
2018-03-23T19:45:01.923Z,72.46
2018-03-23T19:50:02.911Z,73.09
2018-03-23T19:55:03.906Z,73.12
2018-03-23T20:00:04.925Z,72.73
2018-03-23T20:05:05.916Z,73.92
2018-03-23T20:10:06.872Z,74.68
2018-03-23T20:15:07.821Z,73.64
2018-03-23T20:20:14.775Z,73.72
2018-03-23T20:25:15.759Z,73.79
2018-03-23T20:30:16.736Z,73.87
2018-03-23T20:35:17.756Z,74.26
2018-03-23T20:40:19.263Z,73.99
2018-03-23T20:45:20.979Z,74.00
2018-03-23T20:50:21.994Z,73.77
2018-03-23T20:55:22.992Z,74.43
2018-03-23T21:00:23.962Z,75.60
2018-03-23T21:05:24.941Z,75.52
2018-03-23T21:10:25.942Z,77.20
2018-03-23T21:15:26.960Z,78.00
2018-03-23T21:20:28.575Z,77.99
2018-03-23T21:30:37.215Z,79.21
2018-03-23T21:35:38.195Z,78.61
2018-03-23T21:40:39.255Z,80.33
2018-03-23T21:45:40.345Z,79.87
2018-03-23T21:50:41.503Z,78.69
2018-03-23T21:55:42.615Z,77.95
2018-03-23T22:00:43.604Z,78.93
2018-03-23T22:05:44.543Z,77.47
2018-03-23T22:10:45.511Z,76.81
2018-03-23T22:15:46.493Z,75.84
2018-03-23T22:20:47.494Z,75.74
2018-03-23T22:25:48.467Z,75.52
2018-03-23T22:30:49.629Z,77.47
2018-03-23T22:35:50.634Z,78.51
2018-03-23T22:40:51.643Z,78.00
2018-03-23T22:45:52.603Z,76.52
2018-03-23T22:50:53.601Z,76.36
2018-03-23T22:55:54.649Z,77.26
2018-03-23T23:00:55.620Z,79.26
2018-03-23T23:05:56.552Z,78.00
2018-03-23T23:10:57.530Z,78.67
2018-03-23T23:15:58.490Z,78.23
2018-03-23T23:20:59.444Z,77.63
2018-03-23T23:26:00.411Z,76.63
2018-03-23T23:31:01.378Z,77.58
2018-03-23T23:36:02.326Z,77.19
2018-03-23T23:41:03.296Z,77.08
2018-03-23T23:46:04.236Z,77.61
2018-03-23T23:51:05.210Z,76.55
2018-03-23T23:56:06.186Z,76.63
